Ward, Colorado
Current Conditions -  °F | °C
As of 8:37 AM on Monday 24 Nov 2014 (Local Time) from KBDU Reporting Station
Clear Clear  
Wind Chill: 27°   Ceiling: Unl
Heat Index: 36°   Visibility: 10mi
Dew Point:   Wind: 13mph
Humidity: 28%   Direction: 270°W
Pressure: 29.9"   Gusts: 22mph
Location:  40.07°N, 105.51°W
Report Text: KBDU 241537Z AUTO 27011G19KT 10SM CLR 02/M15 A2990 RMK AO2
Loading
Personal Weather Stations






























Interactive Weather Map New forecast layout! Learn more

10-Day Weather Forecast

Advertisements
Track Severe Weather on mobile